Terminal Aerodrome Forecast
Issued by NWS Buffalo, NY

Home | Current Version | Previous Version | Text Only | Print | Product List | Glossary On
Versions: 1 2 3 4 5 6 7 8 9 10 11 12 13 14 15 16 17 18 19 20 21 22 23 24 25 26 27
000
FTUS41 KBUF 280000 AAA
TAFART
TAF AMD
KART 280049Z 2801/2824 VRB03KT 3SM -SHSN OVC015
     FM280200 VRB03KT 5SM -SHSN OVC025
     FM280400 VRB03KT P6SM VCSH BKN040
     FM281200 30008KT P6SM BKN050
     FM282100 26008KT P6SM VCSH BKN040=

USA.gov is the U.S. government's official web portal to all federal, state and local government web resources and services.